Time;durP1;ratioP1;P1;durP2;ratioP2;P2;SDS_P1;SDS_P2;PMS_P1;PMS_P2;Temp;Humidity;BMP_temperature;BMP_pressure;BME280_temperature;BME280_humidity;BME280_pressure;Samples;Min_cycle;Max_cycle;Signal;HPM_P1;HPM_P2
2022/10/20 00:01:51;;;;;;;7.23;4.90;;;10.90;99.90;;;;;;5046395;28;20202;-54
2022/10/20 00:04:18;;;;;;;8.97;5.70;;;11.00;99.90;;;;;;5046941;28;20200;-55
2022/10/20 00:06:44;;;;;;;8.17;4.57;;;11.00;99.90;;;;;;5047902;28;20201;-55
2022/10/20 00:09:11;;;;;;;9.97;4.90;;;10.90;99.90;;;;;;5048961;28;20204;-55
2022/10/20 00:11:38;;;;;;;6.83;5.13;;;10.80;99.90;;;;;;5045639;28;20650;-55
2022/10/20 00:14:05;;;;;;;9.30;5.23;;;10.80;99.90;;;;;;5037362;28;20209;-56
2022/10/20 00:16:35;;;;;;;9.57;5.27;;;10.80;99.90;;;;;;5043293;28;20678;-57
2022/10/20 00:19:02;;;;;;;8.67;4.60;;;10.70;99.90;;;;;;5046768;28;20586;-54
2022/10/20 00:21:29;;;;;;;6.43;4.40;;;10.70;99.90;;;;;;5045491;28;20215;-55
2022/10/20 00:23:58;;;;;;;16.53;5.40;;;10.70;99.90;;;;;;5046524;28;20209;-55
2022/10/20 00:26:27;;;;;;;9.23;5.00;;;10.70;99.90;;;;;;5048783;28;20304;-58
2022/10/20 00:28:54;;;;;;;11.20;5.10;;;10.70;99.90;;;;;;5048146;28;20200;-56
2022/10/20 00:31:23;;;;;;;7.40;5.40;;;10.60;99.90;;;;;;5045720;28;20637;-55
2022/10/20 00:33:50;;;;;;;7.03;5.77;;;10.80;99.90;;;;;;5043772;28;20252;-55
2022/10/20 00:36:18;;;;;;;13.93;5.40;;;10.70;99.90;;;;;;5047414;28;20281;-55
2022/10/20 00:38:46;;;;;;;7.50;5.20;;;10.70;99.90;;;;;;5041212;28;20651;-55
2022/10/20 00:41:15;;;;;;;7.07;5.03;;;10.70;99.90;;;;;;5044163;28;20218;-55
2022/10/20 00:43:54;;;;;;;9.13;5.27;;;10.70;99.90;;;;;;5045049;28;20289;-54
2022/10/20 00:46:39;;;;;;;10.73;5.97;;;10.70;99.90;;;;;;5045218;28;20212;-54
2022/10/20 00:49:16;;;;;;;6.80;5.07;;;10.60;99.90;;;;;;5040060;28;20209;-54
2022/10/20 00:51:43;;;;;;;9.10;5.13;;;10.60;99.90;;;;;;5044598;28;20241;-54
2022/10/20 00:54:16;;;;;;;6.60;5.43;;;10.60;99.90;;;;;;5043394;28;20542;-53
2022/10/20 00:56:47;;;;;;;8.87;6.00;;;10.60;99.90;;;;;;5044151;28;20270;-54
2022/10/20 00:59:17;;;;;;;7.47;5.30;;;10.60;99.90;;;;;;5045507;28;20752;-54
2022/10/20 01:01:45;;;;;;;7.93;5.07;;;10.60;99.90;;;;;;5048054;28;20197;-55
2022/10/20 01:04:12;;;;;;;7.97;5.17;;;10.60;99.90;;;;;;5048808;28;20199;-54
2022/10/20 01:06:39;;;;;;;9.50;5.27;;;10.50;99.90;;;;;;5050316;28;20554;-54
2022/10/20 01:09:06;;;;;;;10.40;5.53;;;10.50;99.90;;;;;;5048897;28;20202;-54
2022/10/20 01:11:58;;;;;;;7.30;5.23;;;10.50;99.90;;;;;;5043395;28;20218;-55
2022/10/20 01:15:03;;;;;;;7.27;5.37;;;10.60;99.90;;;;;;5052076;28;20301;-54
2022/10/20 01:17:48;;;;;;;10.80;5.37;;;10.60;99.90;;;;;;5046442;28;20613;-54
2022/10/20 01:20:40;;;;;;;9.83;6.27;;;10.60;99.90;;;;;;5051291;28;20667;-55
2022/10/20 01:23:28;;;;;;;8.00;5.77;;;10.60;99.90;;;;;;5040536;28;20199;-55
2022/10/20 01:26:23;;;;;;;10.67;6.37;;;10.50;99.90;;;;;;5045895;28;20685;-55
2022/10/20 01:28:53;;;;;;;9.37;6.07;;;10.50;99.90;;;;;;5049770;28;20193;-54
2022/10/20 01:31:28;;;;;;;10.00;5.87;;;10.50;99.90;;;;;;5039320;28;20207;-55
2022/10/20 01:34:13;;;;;;;8.73;6.20;;;10.50;99.90;;;;;;5042602;28;20207;-54
2022/10/20 01:36:49;;;;;;;7.90;4.97;;;10.50;99.90;;;;;;5043677;28;20621;-55
2022/10/20 01:39:23;;;;;;;7.40;5.37;;;10.50;99.90;;;;;;5040655;28;20197;-55
2022/10/20 01:41:59;;;;;;;10.57;6.57;;;10.50;99.90;;;;;;5042353;28;20285;-54
2022/10/20 01:44:28;;;;;;;7.70;5.87;;;10.50;99.90;;;;;;5045261;28;20232;-54
2022/10/20 01:46:57;;;;;;;12.97;6.33;;;10.50;99.90;;;;;;5042383;28;20764;-54
2022/10/20 01:49:25;;;;;;;11.87;6.10;;;10.50;99.90;;;;;;5048903;28;20641;-55
2022/10/20 01:51:53;;;;;;;8.50;6.27;;;10.60;99.90;;;;;;5046000;28;20234;-55
2022/10/20 01:54:25;;;;;;;9.00;6.30;;;10.60;99.90;;;;;;5044184;28;20530;-55
2022/10/20 01:57:26;;;;;;;6.60;5.50;;;10.60;99.90;;;;;;5041747;28;20204;-55
2022/10/20 02:00:12;;;;;;;13.13;6.40;;;10.70;99.90;;;;;;5040066;28;20207;-56
2022/10/20 02:02:57;;;;;;;8.90;6.27;;;10.70;99.90;;;;;;5043135;28;20222;-55
2022/10/20 02:05:42;;;;;;;8.97;6.40;;;10.70;99.90;;;;;;5044283;28;20212;-54
2022/10/20 02:08:44;;;;;;;9.63;5.93;;;10.60;99.90;;;;;;5044358;28;20207;-55
2022/10/20 02:11:39;;;;;;;8.00;5.53;;;10.70;99.90;;;;;;5042878;28;20225;-55
2022/10/20 02:14:10;;;;;;;8.63;6.67;;;10.70;99.90;;;;;;5042874;28;20194;-55
2022/10/20 02:16:41;;;;;;;13.37;6.50;;;10.60;99.90;;;;;;5041419;28;20207;-54
2022/10/20 02:19:12;;;;;;;10.80;7.13;;;10.60;99.90;;;;;;5044734;28;20213;-55
2022/10/20 02:21:38;;;;;;;11.10;6.67;;;10.60;99.90;;;;;;5044052;28;20662;-56
2022/10/20 02:24:07;;;;;;;10.43;7.40;;;10.60;99.90;;;;;;5043218;28;20681;-56
2022/10/20 02:26:38;;;;;;;14.63;6.90;;;10.60;99.90;;;;;;5041783;28;20247;-56
2022/10/20 02:29:17;;;;;;;8.97;6.60;;;10.60;99.90;;;;;;5040274;28;20671;-55
2022/10/20 02:31:45;;;;;;;12.00;6.77;;;10.60;99.90;;;;;;5041603;28;20564;-55
2022/10/20 02:34:12;;;;;;;9.93;6.80;;;10.60;99.90;;;;;;5041230;28;20206;-55
2022/10/20 02:36:41;;;;;;;8.43;6.83;;;10.50;99.90;;;;;;5041971;28;20260;-57
2022/10/20 02:39:08;;;;;;;10.13;6.53;;;10.50;99.90;;;;;;5042421;28;20202;-54
2022/10/20 02:41:36;;;;;;;10.47;6.43;;;10.50;99.90;;;;;;5038585;28;20200;-55
2022/10/20 02:44:03;;;;;;;9.17;6.37;;;10.50;99.90;;;;;;5042086;28;20539;-56
2022/10/20 02:46:30;;;;;;;12.93;7.07;;;10.50;99.90;;;;;;5055567;28;20247;-55
2022/10/20 02:48:56;;;;;;;8.90;6.13;;;10.50;99.90;;;;;;5042019;28;20205;-55
2022/10/20 02:51:23;;;;;;;10.87;6.80;;;10.50;99.90;;;;;;5039463;28;20281;-55
2022/10/20 02:53:50;;;;;;;11.47;7.03;;;10.50;99.90;;;;;;5040128;28;20207;-54
2022/10/20 02:56:17;;;;;;;11.00;6.83;;;10.40;99.90;;;;;;5042158;28;21051;-54
2022/10/20 02:58:44;;;;;;;12.07;7.43;;;10.40;99.90;;;;;;5041227;28;20197;-55
2022/10/20 03:01:11;;;;;;;14.77;7.27;;;10.40;99.90;;;;;;5044432;28;20236;-54
2022/10/20 03:03:38;;;;;;;10.47;7.50;;;10.40;99.90;;;;;;5039790;28;20208;-54
2022/10/20 03:06:12;;;;;;;9.53;7.20;;;10.40;99.90;;;;;;5045496;28;20655;-54
2022/10/20 03:08:40;;;;;;;12.03;7.60;;;10.40;99.90;;;;;;5043355;28;20661;-55
2022/10/20 03:11:06;;;;;;;12.40;7.77;;;10.50;99.90;;;;;;5036470;28;20271;-54
2022/10/20 03:13:33;;;;;;;11.20;7.83;;;10.40;99.90;;;;;;5036843;28;20201;-53
2022/10/20 03:16:00;;;;;;;11.60;7.37;;;10.40;99.90;;;;;;5040748;28;20208;-55
2022/10/20 03:18:27;;;;;;;12.33;7.40;;;10.40;99.90;;;;;;5046189;28;20204;-55
2022/10/20 03:20:54;;;;;;;10.87;7.90;;;10.40;99.90;;;;;;5042929;28;20232;-54
2022/10/20 03:23:21;;;;;;;13.07;7.80;;;10.50;99.90;;;;;;5046516;28;20231;-54
2022/10/20 03:25:48;;;;;;;11.60;7.93;;;10.50;99.90;;;;;;5048407;28;20246;-56
2022/10/20 03:28:15;;;;;;;15.17;8.83;;;10.40;99.90;;;;;;5044890;28;20276;-61
2022/10/20 03:30:42;;;;;;;10.43;7.60;;;10.50;99.90;;;;;;5046065;28;20321;-53
2022/10/20 03:33:09;;;;;;;10.37;8.10;;;10.50;99.90;;;;;;5044792;28;20586;-54
2022/10/20 03:35:36;;;;;;;12.97;8.13;;;10.60;99.90;;;;;;5046121;28;20205;-54
2022/10/20 03:38:02;;;;;;;14.97;9.00;;;10.60;99.90;;;;;;5045997;28;20204;-53
2022/10/20 03:40:29;;;;;;;12.53;8.03;;;10.60;99.90;;;;;;5045375;28;20224;-54
2022/10/20 03:42:56;;;;;;;11.87;8.47;;;10.60;99.90;;;;;;5047590;28;20678;-54
2022/10/20 03:45:22;;;;;;;14.47;8.70;;;10.60;99.90;;;;;;5045704;28;20224;-53
2022/10/20 03:47:49;;;;;;;12.93;8.50;;;10.60;99.90;;;;;;5045770;28;21055;-55
2022/10/20 03:50:16;;;;;;;12.93;7.77;;;10.60;99.90;;;;;;5049153;28;20198;-54
2022/10/20 03:52:43;;;;;;;14.00;8.43;;;10.60;99.90;;;;;;5047267;28;20278;-54
2022/10/20 03:55:09;;;;;;;14.63;8.20;;;10.60;99.90;;;;;;5044286;28;20200;-55
2022/10/20 03:57:36;;;;;;;15.83;8.83;;;10.70;99.90;;;;;;5039757;28;20288;-54
2022/10/20 04:00:04;;;;;;;13.40;8.20;;;10.70;99.90;;;;;;5043472;28;20211;-54
2022/10/20 04:02:34;;;;;;;16.07;9.17;;;10.70;99.90;;;;;;5047593;28;20275;-54
2022/10/20 04:05:01;;;;;;;13.00;8.47;;;10.70;99.90;;;;;;5046074;28;20664;-58
2022/10/20 04:07:28;;;;;;;18.33;8.90;;;10.80;99.90;;;;;;5046449;28;20221;-54
2022/10/20 04:09:56;;;;;;;13.90;9.70;;;10.80;99.90;;;;;;5045756;28;20541;-56
2022/10/20 04:12:23;;;;;;;16.37;8.40;;;10.70;99.90;;;;;;5047020;28;20628;-54
2022/10/20 04:14:50;;;;;;;12.43;7.87;;;10.70;99.90;;;;;;5046140;28;20200;-55
2022/10/20 04:17:17;;;;;;;16.67;8.53;;;10.70;99.90;;;;;;5044962;28;20210;-54
2022/10/20 04:19:43;;;;;;;12.53;8.20;;;10.80;99.90;;;;;;5042527;28;20212;-54
2022/10/20 04:22:10;;;;;;;11.67;8.80;;;10.70;99.90;;;;;;5045379;28;20208;-54
2022/10/20 04:24:37;;;;;;;14.77;8.63;;;10.80;99.90;;;;;;5044502;28;20200;-55
2022/10/20 04:27:04;;;;;;;13.73;8.00;;;10.80;99.90;;;;;;5048322;28;20215;-54
2022/10/20 04:29:31;;;;;;;14.90;8.67;;;10.80;99.90;;;;;;5046575;28;21761;-54
2022/10/20 04:31:58;;;;;;;13.50;8.87;;;10.80;99.90;;;;;;5047881;28;20205;-54
2022/10/20 04:34:24;;;;;;;12.27;8.87;;;10.70;99.90;;;;;;5049535;28;20208;-55
2022/10/20 04:36:51;;;;;;;11.97;8.50;;;10.80;99.90;;;;;;5047695;28;20294;-55
2022/10/20 04:39:18;;;;;;;16.93;9.43;;;10.80;99.90;;;;;;5050202;28;20209;-55
2022/10/20 04:41:45;;;;;;;11.73;7.73;;;10.80;99.90;;;;;;5049632;28;20212;-54
2022/10/20 04:44:11;;;;;;;12.13;8.37;;;10.80;99.90;;;;;;5049047;28;20228;-55
2022/10/20 04:46:38;;;;;;;11.90;8.07;;;10.90;99.90;;;;;;5049294;28;20229;-55
2022/10/20 04:49:05;;;;;;;14.03;8.77;;;10.80;99.90;;;;;;5043698;28;20219;-55
2022/10/20 04:51:32;;;;;;;14.33;9.27;;;10.80;99.90;;;;;;5049865;28;20717;-54
2022/10/20 04:53:58;;;;;;;14.67;8.00;;;10.80;99.90;;;;;;5049566;28;20209;-54
2022/10/20 04:56:25;;;;;;;14.00;8.30;;;10.80;99.90;;;;;;5044043;28;20235;-54
2022/10/20 04:58:54;;;;;;;12.73;8.73;;;10.80;99.90;;;;;;5047128;28;20213;-55
2022/10/20 05:01:23;;;;;;;10.93;7.83;;;10.80;99.90;;;;;;5046514;28;20208;-54
2022/10/20 05:03:49;;;;;;;10.80;7.67;;;10.90;99.90;;;;;;5047659;28;20193;-54
2022/10/20 05:06:25;;;;;;;10.50;8.17;;;10.90;99.90;;;;;;5045039;28;20208;-54
2022/10/20 05:08:56;;;;;;;11.97;8.30;;;10.90;99.90;;;;;;5044443;28;20204;-55
2022/10/20 05:11:24;;;;;;;14.70;8.33;;;10.90;99.90;;;;;;5043660;28;20584;-55
2022/10/20 05:13:51;;;;;;;13.13;8.23;;;11.00;99.90;;;;;;5045571;28;20202;-55
2022/10/20 05:16:18;;;;;;;13.47;8.40;;;11.00;99.90;;;;;;5043143;28;20288;-55
2022/10/20 05:18:46;;;;;;;14.17;8.70;;;11.00;99.90;;;;;;5041572;28;20578;-55
2022/10/20 05:21:18;;;;;;;12.90;8.83;;;10.90;99.90;;;;;;5045072;28;20202;-55
2022/10/20 05:23:45;;;;;;;14.97;8.70;;;10.80;99.90;;;;;;5044744;28;20209;-54
2022/10/20 05:26:14;;;;;;;15.43;8.50;;;10.90;99.90;;;;;;5042972;28;20309;-54
2022/10/20 05:28:46;;;;;;;15.47;9.63;;;10.90;99.90;;;;;;5040120;28;20217;-55
2022/10/20 05:31:14;;;;;;;15.13;8.97;;;10.90;99.90;;;;;;5044436;28;20203;-54
2022/10/20 05:33:49;;;;;;;12.87;8.83;;;10.90;99.90;;;;;;5045438;28;20249;-55
2022/10/20 05:36:18;;;;;;;11.87;7.93;;;11.00;99.90;;;;;;5042965;28;20212;-54
2022/10/20 05:38:48;;;;;;;14.10;8.73;;;11.00;99.90;;;;;;5041816;28;20201;-54
2022/10/20 05:41:17;;;;;;;14.57;9.47;;;10.90;99.90;;;;;;5042305;28;20193;-54
2022/10/20 05:43:53;;;;;;;11.67;8.20;;;10.90;99.90;;;;;;5043586;28;20196;-54
2022/10/20 05:46:20;;;;;;;11.87;8.77;;;11.00;99.90;;;;;;5043633;28;20254;-53
2022/10/20 05:48:47;;;;;;;14.63;9.20;;;11.00;99.90;;;;;;5044964;28;20209;-54
2022/10/20 05:51:18;;;;;;;11.87;8.67;;;11.00;99.90;;;;;;5042723;28;20198;-54
2022/10/20 05:53:45;;;;;;;12.70;8.57;;;11.00;99.90;;;;;;5042089;28;20201;-55
2022/10/20 05:56:15;;;;;;;12.80;8.67;;;10.90;99.90;;;;;;5047892;28;21108;-54
2022/10/20 05:58:42;;;;;;;11.83;8.90;;;11.00;99.90;;;;;;5045115;28;20199;-54
2022/10/20 06:01:16;;;;;;;11.33;8.97;;;11.10;99.90;;;;;;4682992;28;10000406;-54
2022/10/20 06:04:01;;;;;;;12.27;8.53;;;11.10;99.90;;;;;;5031120;28;20302;-55
2022/10/20 06:06:29;;;;;;;18.03;9.17;;;11.10;99.90;;;;;;5038106;28;20532;-54
2022/10/20 06:08:58;;;;;;;13.97;8.73;;;11.10;99.90;;;;;;5042807;28;20927;-54
2022/10/20 06:11:25;;;;;;;10.33;8.63;;;11.10;99.90;;;;;;5041433;28;20709;-54
2022/10/20 06:13:52;;;;;;;13.57;9.17;;;11.00;99.90;;;;;;5041563;28;20199;-54
2022/10/20 06:16:24;;;;;;;12.60;8.73;;;11.00;99.90;;;;;;5042007;28;20611;-54
2022/10/20 06:18:52;;;;;;;14.13;8.33;;;11.00;99.90;;;;;;5037560;28;20208;-55
2022/10/20 06:21:21;;;;;;;12.57;8.53;;;11.10;99.90;;;;;;5041062;28;20196;-54
2022/10/20 06:23:49;;;;;;;14.47;8.37;;;11.10;99.90;;;;;;5042782;28;20205;-61
2022/10/20 06:26:22;;;;;;;16.73;8.63;;;11.10;99.90;;;;;;5043889;28;20216;-55
2022/10/20 06:28:52;;;;;;;13.87;8.20;;;11.10;99.90;;;;;;5045386;28;20681;-54
2022/10/20 06:31:24;;;;;;;12.83;8.60;;;11.10;99.90;;;;;;5041524;28;20211;-55
2022/10/20 06:33:51;;;;;;;12.97;9.10;;;11.10;99.90;;;;;;5044993;28;20203;-54
2022/10/20 06:36:20;;;;;;;11.77;8.20;;;11.20;99.90;;;;;;5036493;28;20200;-55
2022/10/20 06:38:47;;;;;;;11.87;9.40;;;11.20;99.90;;;;;;5045413;28;20210;-54
2022/10/20 06:41:16;;;;;;;12.73;8.97;;;11.30;99.90;;;;;;5040054;28;20195;-54
2022/10/20 06:43:44;;;;;;;15.53;9.47;;;11.30;99.90;;;;;;5036441;28;20209;-54
2022/10/20 06:46:13;;;;;;;15.07;9.07;;;11.30;99.90;;;;;;5038473;28;20203;-55
2022/10/20 06:48:40;;;;;;;13.97;9.80;;;11.30;99.90;;;;;;5038566;28;20248;-55
2022/10/20 06:51:11;;;;;;;13.50;9.10;;;11.30;99.90;;;;;;5036385;28;20686;-55
2022/10/20 06:53:39;;;;;;;14.47;10.07;;;11.20;99.90;;;;;;5036986;28;20308;-55
2022/10/20 06:56:13;;;;;;;12.57;8.97;;;11.30;99.90;;;;;;5034731;28;20295;-55
2022/10/20 06:58:42;;;;;;;13.73;9.60;;;11.30;99.90;;;;;;5038862;28;20829;-55
2022/10/20 07:01:18;;;;;;;12.47;8.63;;;11.40;99.90;;;;;;5034753;28;20195;-55
2022/10/20 07:03:46;;;;;;;13.77;9.63;;;11.40;99.90;;;;;;5033745;28;20203;-54
2022/10/20 07:06:16;;;;;;;12.53;9.00;;;11.50;99.90;;;;;;5035848;28;20200;-55
2022/10/20 07:08:43;;;;;;;16.20;9.40;;;11.50;99.90;;;;;;5039153;28;20292;-55
2022/10/20 07:11:16;;;;;;;14.30;9.77;;;11.50;99.90;;;;;;5037467;28;20241;-55
2022/10/20 07:13:42;;;;;;;11.13;8.07;;;11.60;99.90;;;;;;5034827;28;21468;-55
2022/10/20 07:16:15;;;;;;;10.93;8.57;;;11.60;99.90;;;;;;5037206;28;20201;-56
2022/10/20 07:18:42;;;;;;;14.70;9.40;;;11.70;99.90;;;;;;5038803;28;20194;-55
2022/10/20 07:21:12;;;;;;;13.27;9.57;;;11.70;99.90;;;;;;5047513;28;20313;-54
2022/10/20 07:23:39;;;;;;;13.20;8.63;;;11.70;99.90;;;;;;5041161;28;20208;-55
2022/10/20 07:26:12;;;;;;;11.20;8.07;;;11.80;99.90;;;;;;5041731;28;20489;-55
2022/10/20 07:28:41;;;;;;;16.53;9.20;;;11.90;99.90;;;;;;5042133;28;20201;-55
2022/10/20 07:31:14;;;;;;;13.53;9.83;;;11.90;99.90;;;;;;5041129;28;20195;-55
2022/10/20 07:33:40;;;;;;;12.97;9.40;;;11.90;99.90;;;;;;5039436;28;20575;-56
2022/10/20 07:36:28;;;;;;;11.27;9.07;;;12.00;99.90;;;;;;5041688;28;20255;-55
2022/10/20 07:39:04;;;;;;;14.33;9.13;;;12.00;99.90;;;;;;5033991;28;20640;-55
2022/10/20 07:41:32;;;;;;;13.60;9.60;;;12.10;99.90;;;;;;5043418;28;20201;-54
2022/10/20 07:43:59;;;;;;;11.70;9.03;;;12.20;99.90;;;;;;5047929;28;20200;-56
2022/10/20 07:46:26;;;;;;;12.67;9.53;;;12.20;99.90;;;;;;5044293;28;20200;-55
2022/10/20 07:48:53;;;;;;;13.07;9.33;;;12.30;99.90;;;;;;5038828;28;20312;-55
2022/10/20 07:51:27;;;;;;;11.73;8.33;;;12.30;99.90;;;;;;5035946;28;20209;-55
2022/10/20 07:54:06;;;;;;;14.93;9.53;;;12.40;99.90;;;;;;5047247;28;20203;-55
2022/10/20 07:56:41;;;;;;;14.83;8.50;;;12.50;99.90;;;;;;5048247;28;20197;-57
2022/10/20 07:59:09;;;;;;;13.13;8.67;;;12.60;99.90;;;;;;5042122;28;20202;-55
2022/10/20 08:01:36;;;;;;;15.00;9.80;;;12.70;99.90;;;;;;5045396;28;20210;-56
2022/10/20 08:04:04;;;;;;;12.60;8.90;;;12.80;99.90;;;;;;5049992;28;20207;-55
2022/10/20 08:06:30;;;;;;;12.73;9.33;;;12.90;99.90;;;;;;5048012;28;20195;-55
2022/10/20 08:08:59;;;;;;;12.73;9.53;;;13.00;99.90;;;;;;5050387;28;20198;-56
2022/10/20 08:11:26;;;;;;;13.07;8.90;;;13.00;99.90;;;;;;5043431;28;20289;-55
2022/10/20 08:13:53;;;;;;;15.27;9.13;;;13.00;99.90;;;;;;5051237;28;20206;-55
2022/10/20 08:16:20;;;;;;;11.97;9.30;;;13.10;99.90;;;;;;5050912;28;20198;-58
2022/10/20 08:19:01;;;;;;;13.53;8.93;;;13.10;99.90;;;;;;5033425;28;20208;-55
2022/10/20 08:21:37;;;;;;;13.07;8.87;;;13.10;99.90;;;;;;5048216;28;20714;-56
2022/10/20 08:24:04;;;;;;;14.57;8.90;;;13.30;99.90;;;;;;5045529;28;20210;-55
2022/10/20 08:26:30;;;;;;;12.77;9.17;;;13.30;99.90;;;;;;5050569;28;20204;-54
2022/10/20 08:28:57;;;;;;;14.90;9.90;;;13.30;99.90;;;;;;5050546;28;20739;-55
2022/10/20 08:31:24;;;;;;;12.27;9.03;;;13.30;99.90;;;;;;5045261;28;20203;-56
2022/10/20 08:33:51;;;;;;;14.47;10.00;;;13.30;99.90;;;;;;5046794;28;20237;-55
2022/10/20 08:36:20;;;;;;;12.67;9.20;;;13.30;99.90;;;;;;5047850;28;20202;-55
2022/10/20 08:38:47;;;;;;;12.13;8.77;;;13.30;99.90;;;;;;5045290;28;20204;-56
2022/10/20 08:41:23;;;;;;;13.17;9.53;;;13.30;99.90;;;;;;5040882;28;20207;-56
2022/10/20 08:43:53;;;;;;;11.83;9.20;;;13.30;99.90;;;;;;5039201;28;20371;-55
2022/10/20 08:46:27;;;;;;;15.00;10.63;;;13.30;99.90;;;;;;5043507;28;20203;-55
2022/10/20 08:48:54;;;;;;;12.63;9.17;;;13.40;99.90;;;;;;5041222;28;20208;-56
2022/10/20 08:51:25;;;;;;;12.17;9.50;;;13.40;99.90;;;;;;5040675;28;20206;-55
2022/10/20 08:53:56;;;;;;;12.57;9.63;;;13.40;99.90;;;;;;5048181;28;21543;-56
2022/10/20 08:56:26;;;;;;;14.10;9.33;;;13.40;99.90;;;;;;5049251;28;20201;-56
2022/10/20 08:58:53;;;;;;;12.23;8.80;;;13.50;99.90;;;;;;5053085;28;20263;-57
2022/10/20 09:01:23;;;;;;;13.20;9.40;;;13.70;99.90;;;;;;5052687;28;20203;-56
2022/10/20 09:03:56;;;;;;;17.07;9.37;;;13.70;99.90;;;;;;5043864;28;20253;-54
2022/10/20 09:06:23;;;;;;;13.03;9.00;;;13.70;99.90;;;;;;5051055;28;20293;-55
2022/10/20 09:08:51;;;;;;;11.90;8.63;;;13.70;99.90;;;;;;5043525;28;20225;-55
2022/10/20 09:11:24;;;;;;;17.43;9.47;;;13.80;99.90;;;;;;5049643;28;20223;-55
2022/10/20 09:13:52;;;;;;;12.10;9.00;;;13.70;99.90;;;;;;5041823;28;20282;-55
2022/10/20 09:16:27;;;;;;;14.37;9.93;;;13.70;99.90;;;;;;5046298;28;20224;-55
2022/10/20 09:19:22;;;;;;;12.40;8.93;;;13.70;99.90;;;;;;5044137;28;20190;-55
2022/10/20 09:21:56;;;;;;;12.97;9.70;;;13.90;99.90;;;;;;5045662;28;20224;-55
2022/10/20 09:24:26;;;;;;;15.63;9.57;;;14.00;99.90;;;;;;5044461;28;20294;-54
2022/10/20 09:26:53;;;;;;;13.13;8.80;;;14.10;99.90;;;;;;5049601;28;20248;-55
2022/10/20 09:29:37;;;;;;;13.57;9.30;;;14.00;99.90;;;;;;5044654;28;20236;-55
2022/10/20 09:32:30;;;;;;;12.00;9.17;;;14.10;99.90;;;;;;5043285;28;20666;-55
2022/10/20 09:35:23;;;;;;;12.67;8.87;;;14.10;99.90;;;;;;5040063;28;20303;-55
2022/10/20 09:38:10;;;;;;;15.37;9.10;;;14.20;99.90;;;;;;5041999;28;20235;-55
2022/10/20 09:41:08;;;;;;;12.77;9.40;;;14.20;99.90;;;;;;5046029;28;20652;-59
2022/10/20 09:43:46;;;;;;;14.93;8.87;;;14.20;99.90;;;;;;5043919;28;20217;-55
2022/10/20 09:46:19;;;;;;;14.13;9.07;;;14.20;99.90;;;;;;5043369;28;20294;-57
2022/10/20 09:48:48;;;;;;;13.20;8.70;;;14.20;99.90;;;;;;5058103;28;20312;-55
2022/10/20 09:51:19;;;;;;;12.27;9.63;;;14.30;99.90;;;;;;5038968;28;20197;-55
2022/10/20 09:54:13;;;;;;;13.40;8.73;;;14.20;99.90;;;;;;5055601;28;20236;-56
2022/10/20 09:56:42;;;;;;;10.33;8.70;;;14.40;99.90;;;;;;5040000;28;20232;-54
2022/10/20 09:59:37;;;;;;;11.47;8.77;;;14.40;99.90;;;;;;5034514;28;20299;-58
2022/10/20 10:02:29;;;;;;;10.77;8.50;;;14.40;99.90;;;;;;5036279;28;20226;-56
2022/10/20 10:05:14;;;;;;;14.30;8.93;;;14.30;99.90;;;;;;5032276;28;20203;-56
2022/10/20 10:07:41;;;;;;;11.70;8.63;;;14.30;99.90;;;;;;5039788;28;20227;-56
2022/10/20 10:10:17;;;;;;;13.67;9.10;;;14.30;99.90;;;;;;5033335;28;20305;-56
2022/10/20 10:12:56;;;;;;;11.73;8.27;;;14.40;99.90;;;;;;5037233;28;20202;-56
2022/10/20 10:15:25;;;;;;;10.77;8.67;;;14.50;99.90;;;;;;5031927;28;20200;-56
2022/10/20 10:17:52;;;;;;;17.07;8.93;;;14.40;99.90;;;;;;5039317;28;20207;-56
2022/10/20 10:20:33;;;;;;;12.03;9.03;;;14.50;99.90;;;;;;5043207;28;21032;-56
2022/10/20 10:23:24;;;;;;;14.10;9.27;;;14.40;99.90;;;;;;5046401;28;20208;-56
2022/10/20 10:25:52;;;;;;;14.43;8.87;;;14.50;99.90;;;;;;5039551;28;20741;-56
2022/10/20 10:28:35;;;;;;;13.70;9.17;;;14.50;99.90;;;;;;5039920;28;20216;-56
2022/10/20 10:31:19;;;;;;;13.10;9.20;;;14.40;99.90;;;;;;5036359;28;20570;-56
2022/10/20 10:33:47;;;;;;;14.37;9.60;;;14.40;99.90;;;;;;5041691;28;20216;-56
2022/10/20 10:36:35;;;;;;;13.40;9.47;;;14.40;99.90;;;;;;5034731;28;20201;-57
2022/10/20 10:39:05;;;;;;;12.67;8.90;;;14.40;99.90;;;;;;5043112;28;20669;-56
2022/10/20 10:42:08;;;;;;;15.10;10.27;;;14.40;99.90;;;;;;5045717;28;20242;-56
2022/10/20 10:44:47;;;;;;;14.70;10.57;;;14.40;99.90;;;;;;5033729;28;20209;-56
2022/10/20 10:47:45;;;;;;;14.53;10.10;;;14.30;99.90;;;;;;5027560;28;20227;-56
2022/10/20 10:50:26;;;;;;;14.27;9.60;;;14.30;99.90;;;;;;5030884;28;20198;-58
2022/10/20 10:52:59;;;;;;;16.47;10.07;;;14.30;99.90;;;;;;5038136;28;20227;-56
2022/10/20 10:55:37;;;;;;;15.03;10.57;;;14.30;99.90;;;;;;5042514;28;20208;-57
2022/10/20 10:58:20;;;;;;;17.80;9.67;;;14.30;99.90;;;;;;5043004;28;20256;-57
2022/10/20 11:01:05;;;;;;;17.43;9.53;;;14.30;99.90;;;;;;5042468;28;20222;-56
2022/10/20 11:03:52;;;;;;;17.60;10.27;;;14.40;99.90;;;;;;5052830;28;20204;-56
2022/10/20 11:06:30;;;;;;;16.53;10.70;;;14.20;99.90;;;;;;5039142;28;20196;-56
2022/10/20 11:09:24;;;;;;;13.07;9.83;;;14.20;99.90;;;;;;5039078;28;20212;-56
2022/10/20 11:12:18;;;;;;;14.80;10.10;;;14.20;99.90;;;;;;5041534;28;20226;-56
2022/10/20 11:15:07;;;;;;;14.17;9.93;;;14.20;99.90;;;;;;5042927;28;20563;-56
2022/10/20 11:18:01;;;;;;;15.40;10.97;;;14.20;99.90;;;;;;5036399;28;20829;-57
2022/10/20 11:20:42;;;;;;;12.73;10.20;;;14.20;99.90;;;;;;5043709;28;20572;-57
2022/10/20 11:23:27;;;;;;;15.97;11.20;;;14.10;99.90;;;;;;5028470;28;20647;-56
2022/10/20 11:26:07;;;;;;;23.40;10.53;;;14.10;99.90;;;;;;5042050;28;20253;-56
2022/10/20 11:28:45;;;;;;;15.10;10.50;;;14.10;99.90;;;;;;5038240;28;20208;-56
2022/10/20 11:31:30;;;;;;;16.30;10.57;;;14.10;99.90;;;;;;5035155;28;20215;-56
2022/10/20 11:34:29;;;;;;;16.03;10.50;;;14.10;99.90;;;;;;5052228;28;20661;-59
2022/10/20 11:37:12;;;;;;;15.27;11.47;;;14.10;99.90;;;;;;5031581;28;20674;-54
2022/10/20 11:39:46;;;;;;;16.20;10.83;;;14.10;99.90;;;;;;5028676;28;20199;-55
2022/10/20 11:42:25;;;;;;;18.40;11.60;;;14.10;99.90;;;;;;5041599;28;20201;-55
2022/10/20 11:44:53;;;;;;;18.43;11.47;;;14.00;99.90;;;;;;5052622;28;20216;-55
2022/10/20 11:47:33;;;;;;;17.40;12.00;;;14.00;99.90;;;;;;5047357;28;20666;-55
2022/10/20 11:50:02;;;;;;;14.93;11.40;;;14.10;99.90;;;;;;5063740;28;20221;-56
2022/10/20 11:52:59;;;;;;;17.27;12.07;;;14.10;99.90;;;;;;5046745;28;20246;-55
2022/10/20 11:55:48;;;;;;;14.60;11.57;;;14.20;99.90;;;;;;5047424;28;20204;-55
2022/10/20 11:59:14;;;;;;;19.07;12.00;;;14.20;99.90;;;;;;5043707;28;20208;-56
2022/10/20 12:02:01;;;;;;;17.63;11.90;;;14.20;99.90;;;;;;5012568;28;20213;-55
2022/10/20 12:04:54;;;;;;;19.20;12.07;;;14.30;99.90;;;;;;5016791;28;20251;-61
2022/10/20 12:07:46;;;;;;;19.93;12.17;;;14.40;99.90;;;;;;5026098;28;20211;-55
2022/10/20 12:10:44;;;;;;;17.30;12.57;;;14.50;99.90;;;;;;5016899;28;20328;-58
2022/10/20 12:13:22;;;;;;;16.70;11.27;;;14.50;99.90;;;;;;5022193;28;20201;-55
2022/10/20 12:15:51;;;;;;;19.70;11.50;;;14.40;99.90;;;;;;5010164;28;20201;-55
2022/10/20 12:18:25;;;;;;;18.73;11.37;;;14.40;99.90;;;;;;5014039;28;20205;-60
2022/10/20 12:21:01;;;;;;;14.87;11.07;;;14.50;99.90;;;;;;5015490;28;20210;-60
2022/10/20 12:23:43;;;;;;;19.10;12.07;;;14.50;99.90;;;;;;5022229;28;20218;-60
2022/10/20 12:26:28;;;;;;;16.03;12.27;;;14.50;99.90;;;;;;5014977;28;20205;-56
2022/10/20 12:28:55;;;;;;;17.87;12.60;;;14.50;99.90;;;;;;5015899;28;20312;-58
2022/10/20 12:31:24;;;;;;;20.33;12.53;;;14.60;99.90;;;;;;5020438;28;20585;-56
2022/10/20 12:33:53;;;;;;;18.27;12.80;;;14.60;99.90;;;;;;5008750;28;20228;-56
2022/10/20 12:36:38;;;;;;;18.60;12.30;;;14.80;99.90;;;;;;5041605;28;20903;-56
2022/10/20 12:39:18;;;;;;;18.27;13.17;;;14.80;99.90;;;;;;5049185;28;20629;-61
2022/10/20 12:41:57;;;;;;;23.63;12.77;;;14.90;99.90;;;;;;5036880;28;20288;-60
2022/10/20 12:44:28;;;;;;;20.00;13.17;;;14.90;99.90;;;;;;5044787;28;20204;-61
2022/10/20 12:47:05;;;;;;;20.77;13.07;;;14.90;99.90;;;;;;5034563;28;20206;-62
2022/10/20 12:49:39;;;;;;;19.80;13.47;;;14.90;99.90;;;;;;5040262;28;20256;-61
2022/10/20 12:52:20;;;;;;;18.20;12.40;;;15.00;99.90;;;;;;5045342;28;20236;-60
2022/10/20 12:54:55;;;;;;;18.30;14.43;;;15.00;99.90;;;;;;5041548;28;20203;-60
2022/10/20 12:57:41;;;;;;;19.97;12.40;;;15.20;99.90;;;;;;5045894;28;20644;-55
2022/10/20 13:00:20;;;;;;;21.13;12.90;;;15.40;99.90;;;;;;5036210;28;20613;-55
2022/10/20 13:02:57;;;;;;;20.80;12.50;;;15.50;99.90;;;;;;5040585;28;20290;-55
2022/10/20 13:05:41;;;;;;;20.90;13.00;;;15.60;99.90;;;;;;5036875;28;20969;-55
2022/10/20 13:08:21;;;;;;;17.47;11.90;;;15.50;99.90;;;;;;5040123;28;20222;-55